createdAt,value
2019-05-25T00:02:13.833Z,21.25
2019-05-25T00:04:42.472Z,25.32
2019-05-25T00:07:11.137Z,24.85
2019-05-25T00:09:39.770Z,26.12
2019-05-25T00:12:08.311Z,26.68
2019-05-25T00:14:37.431Z,26.65
2019-05-25T00:17:06.046Z,24.63
2019-05-25T00:19:34.631Z,25.75
2019-05-25T00:22:03.167Z,27.00
2019-05-25T00:24:31.757Z,23.00
2019-05-25T00:27:00.378Z,24.10
2019-05-25T00:29:29.066Z,22.95
2019-05-25T00:31:57.611Z,22.65
2019-05-25T00:34:28.056Z,24.40
2019-05-25T00:36:56.557Z,23.22
2019-05-25T00:39:25.173Z,22.52
2019-05-25T00:41:53.783Z,24.35
2019-05-25T00:44:22.324Z,23.12
2019-05-25T00:46:50.986Z,23.07
2019-05-25T00:49:19.600Z,20.43
2019-05-25T00:51:48.219Z,22.37
2019-05-25T00:54:27.429Z,25.35
2019-05-25T00:56:47.177Z,23.55
2019-05-25T00:59:15.784Z,24.23
2019-05-25T01:01:44.400Z,24.57
2019-05-25T01:04:15.680Z,22.42
2019-05-25T01:06:44.160Z,21.45
2019-05-25T01:09:12.778Z,21.00
2019-05-25T01:11:41.284Z,23.87
2019-05-25T01:14:11.328Z,19.17
2019-05-25T01:16:39.890Z,21.33
2019-05-25T01:19:08.455Z,19.05
2019-05-25T01:21:36.991Z,22.40
2019-05-25T01:24:05.888Z,21.73
2019-05-25T01:26:34.651Z,24.05
2019-05-25T01:29:03.452Z,23.47
2019-05-25T01:31:31.991Z,21.42
2019-05-25T01:34:00.564Z,24.07
2019-05-25T01:36:29.112Z,23.07
2019-05-25T01:38:57.675Z,27.52
2019-05-25T01:41:26.206Z,22.85
2019-05-25T01:43:54.756Z,22.30
2019-05-25T01:46:23.303Z,24.87
2019-05-25T01:48:51.943Z,29.15
2019-05-25T01:51:20.700Z,27.37
2019-05-25T01:53:49.362Z,26.45
2019-05-25T01:56:18.001Z,25.02
2019-05-25T01:58:46.641Z,26.68
2019-05-25T02:01:15.431Z,25.85
2019-05-25T02:03:44.090Z,27.62
2019-05-25T02:06:12.671Z,26.68
2019-05-25T02:08:41.173Z,27.52
2019-05-25T02:11:12.719Z,27.30
2019-05-25T02:13:41.366Z,23.20
2019-05-25T02:16:11.187Z,25.25
2019-05-25T02:18:39.734Z,28.73
2019-05-25T02:21:08.408Z,24.32
2019-05-25T02:23:37.179Z,29.30
2019-05-25T02:26:05.792Z,28.00
2019-05-25T02:28:34.379Z,29.52
2019-05-25T02:31:02.854Z,27.60
2019-05-25T02:33:31.576Z,23.90
2019-05-25T02:36:00.116Z,25.23
2019-05-25T02:38:28.723Z,27.82
2019-05-25T02:40:57.829Z,25.25
2019-05-25T02:43:26.461Z,26.37
2019-05-25T02:45:55.164Z,23.90
2019-05-25T02:48:23.717Z,29.15
2019-05-25T02:50:53.157Z,25.30
2019-05-25T02:53:21.753Z,25.97
2019-05-25T02:55:50.457Z,25.90
2019-05-25T02:58:19.070Z,25.95
2019-05-25T03:00:47.684Z,26.60
2019-05-25T03:03:16.717Z,23.18
2019-05-25T03:05:46.508Z,23.85
2019-05-25T03:08:15.116Z,29.75
2019-05-25T03:10:44.501Z,23.52
2019-05-25T03:13:13.112Z,28.62
2019-05-25T03:15:41.660Z,26.12
2019-05-25T03:18:10.271Z,27.15
2019-05-25T03:20:38.884Z,26.27
2019-05-25T03:23:07.496Z,28.60
2019-05-25T03:25:48.681Z,28.45
2019-05-25T03:28:06.437Z,26.57
2019-05-25T03:30:37.112Z,26.23
2019-05-25T03:33:06.299Z,30.15
2019-05-25T03:35:34.954Z,27.13
2019-05-25T03:38:03.617Z,30.65
2019-05-25T03:40:32.252Z,24.43
2019-05-25T03:43:00.865Z,26.57
2019-05-25T03:45:29.499Z,33.48
2019-05-25T03:47:58.557Z,26.77
2019-05-25T03:50:27.086Z,27.67
2019-05-25T03:52:55.734Z,27.48
2019-05-25T03:55:24.391Z,26.48
2019-05-25T03:57:52.941Z,26.48
2019-05-25T04:00:33.253Z,23.95
2019-05-25T04:03:01.971Z,23.22
2019-05-25T04:05:30.615Z,29.30
2019-05-25T04:07:59.153Z,26.90
2019-05-25T04:10:27.765Z,25.08
2019-05-25T04:12:56.297Z,24.07
2019-05-25T04:15:25.303Z,22.95
2019-05-25T04:17:53.849Z,23.45
2019-05-25T04:20:22.505Z,27.42
2019-05-25T04:22:51.125Z,22.27
2019-05-25T04:25:19.746Z,25.68
2019-05-25T04:27:49.571Z,26.17
2019-05-25T04:30:18.718Z,19.50
2019-05-25T04:32:47.742Z,23.30
2019-05-25T04:35:16.697Z,23.65
2019-05-25T04:37:45.267Z,21.93
2019-05-25T04:40:13.915Z,21.12
2019-05-25T04:42:42.537Z,25.80
2019-05-25T04:45:11.315Z,23.98
2019-05-25T04:47:39.805Z,27.45
2019-05-25T04:50:09.090Z,25.55
2019-05-25T04:52:40.977Z,25.70
2019-05-25T04:55:08.902Z,25.10
2019-05-25T04:57:37.645Z,23.70
2019-05-25T05:00:08.159Z,23.30
2019-05-25T05:02:36.779Z,23.67
2019-05-25T05:05:06.738Z,21.55
2019-05-25T05:07:35.348Z,24.07
2019-05-25T05:10:08.124Z,20.52
2019-05-25T05:12:36.756Z,20.25
2019-05-25T05:15:07.272Z,22.52
2019-05-25T05:17:35.880Z,21.68
2019-05-25T05:20:07.216Z,21.62
2019-05-25T05:22:35.823Z,23.05
2019-05-25T05:25:05.936Z,22.93
2019-05-25T05:27:34.477Z,22.25
2019-05-25T05:30:04.762Z,21.20
2019-05-25T05:32:33.377Z,25.72
2019-05-25T05:35:02.041Z,19.92
2019-05-25T05:37:32.199Z,23.05
2019-05-25T05:40:02.199Z,22.10
2019-05-25T05:42:33.077Z,22.75
2019-05-25T05:45:03.156Z,25.02
2019-05-25T05:47:34.700Z,16.82
2019-05-25T05:50:04.823Z,17.17
2019-05-25T05:52:38.741Z,20.80
2019-05-25T05:55:10.258Z,18.90
2019-05-25T05:57:38.905Z,19.05
2019-05-25T06:00:10.953Z,20.15
2019-05-25T06:02:39.594Z,19.70
2019-05-25T06:05:08.902Z,19.10
2019-05-25T06:07:37.514Z,16.90
2019-05-25T06:10:07.430Z,15.93
2019-05-25T06:12:36.041Z,24.65
2019-05-25T06:15:06.680Z,14.83
2019-05-25T06:17:35.295Z,15.68
2019-05-25T06:20:07.762Z,15.25
2019-05-25T06:22:36.408Z,16.77
2019-05-25T06:25:07.936Z,19.23
2019-05-25T06:27:37.079Z,15.48
2019-05-25T06:30:09.588Z,18.05
2019-05-25T06:32:38.382Z,19.85
2019-05-25T06:35:07.855Z,14.00
2019-05-25T06:37:36.546Z,17.40
2019-05-25T06:40:10.143Z,14.78
2019-05-25T06:42:38.811Z,20.92
2019-05-25T06:45:09.669Z,15.43
2019-05-25T06:47:38.283Z,15.95
2019-05-25T06:50:07.902Z,18.87
2019-05-25T06:52:36.486Z,21.17
2019-05-25T06:55:07.371Z,16.80
2019-05-25T06:57:43.266Z,18.42
2019-05-25T07:00:08.777Z,17.60
2019-05-25T07:02:38.072Z,16.37
2019-05-25T07:05:09.983Z,15.95
2019-05-25T07:07:38.602Z,18.80
2019-05-25T07:10:09.728Z,18.45
2019-05-25T07:12:38.384Z,16.48
2019-05-25T07:15:10.399Z,17.42
2019-05-25T07:17:38.952Z,20.80
2019-05-25T07:20:08.385Z,19.07
2019-05-25T07:22:37.004Z,19.50
2019-05-25T07:25:07.598Z,16.55
2019-05-25T07:27:36.301Z,17.10
2019-05-25T07:30:09.978Z,19.50
2019-05-25T07:32:38.614Z,16.85
2019-05-25T07:35:08.123Z,20.27
2019-05-25T07:37:39.739Z,17.87
2019-05-25T07:40:09.021Z,19.73
2019-05-25T07:42:37.787Z,19.50
2019-05-25T07:45:08.768Z,17.00
2019-05-25T07:47:37.378Z,19.12
2019-05-25T07:50:09.955Z,20.43
2019-05-25T07:52:38.780Z,21.40
2019-05-25T07:55:08.127Z,15.78
2019-05-25T07:57:37.034Z,17.52
2019-05-25T08:00:07.250Z,19.90
2019-05-25T08:02:35.733Z,24.37
2019-05-25T08:05:06.260Z,22.58
2019-05-25T08:07:34.876Z,18.17
2019-05-25T08:10:03.889Z,20.27
2019-05-25T08:12:32.605Z,20.32
2019-05-25T08:15:01.265Z,22.45
2019-05-25T08:17:30.033Z,21.35
2019-05-25T08:19:58.579Z,19.20
2019-05-25T08:22:27.052Z,17.92
2019-05-25T08:24:55.592Z,20.40
2019-05-25T08:27:24.208Z,20.80
2019-05-25T08:29:52.864Z,18.27
2019-05-25T08:32:21.475Z,22.40
2019-05-25T08:34:49.954Z,18.80
2019-05-25T08:37:18.619Z,18.02
2019-05-25T08:39:47.560Z,17.67
2019-05-25T08:42:16.170Z,18.82
2019-05-25T08:44:44.857Z,18.87
2019-05-25T08:47:13.399Z,20.68
2019-05-25T08:49:41.944Z,17.60
2019-05-25T08:52:10.493Z,23.90
2019-05-25T08:54:39.121Z,22.10
2019-05-25T08:57:07.762Z,17.55
2019-05-25T08:59:36.336Z,18.27
2019-05-25T09:02:04.955Z,22.60
2019-05-25T09:04:33.497Z,19.45
2019-05-25T09:07:02.133Z,17.77
2019-05-25T09:09:30.600Z,17.02
2019-05-25T09:11:59.219Z,17.35
2019-05-25T09:14:27.761Z,20.10
2019-05-25T09:16:56.304Z,16.70
2019-05-25T09:19:24.812Z,15.30
2019-05-25T09:22:02.378Z,16.93
2019-05-25T09:24:23.838Z,16.93
2019-05-25T09:26:52.385Z,15.40
2019-05-25T09:29:21.008Z,15.68
2019-05-25T09:31:49.665Z,16.93
2019-05-25T09:34:18.211Z,16.85
2019-05-25T09:36:46.831Z,13.95
2019-05-25T09:39:15.388Z,13.72
2019-05-25T09:41:43.929Z,14.98
2019-05-25T09:44:12.533Z,14.13
2019-05-25T09:46:41.068Z,15.63
2019-05-25T09:49:09.830Z,16.62
2019-05-25T09:51:38.444Z,14.80
2019-05-25T09:54:06.993Z,17.10
2019-05-25T09:56:35.714Z,16.55
2019-05-25T09:59:17.625Z,16.37
2019-05-25T10:01:34.702Z,14.95
2019-05-25T10:04:03.357Z,12.75
2019-05-25T10:06:31.953Z,13.68
2019-05-25T10:09:00.628Z,16.27
2019-05-25T10:11:29.251Z,15.58
2019-05-25T10:13:57.847Z,15.35
2019-05-25T10:16:26.507Z,11.73
2019-05-25T10:18:55.147Z,12.73
2019-05-25T10:21:23.688Z,17.00
2019-05-25T10:23:52.303Z,16.25
2019-05-25T10:26:23.015Z,13.80
2019-05-25T10:28:51.100Z,13.35
2019-05-25T10:31:19.648Z,19.12
2019-05-25T10:33:49.093Z,13.40
2019-05-25T10:36:17.705Z,14.60
2019-05-25T10:38:46.348Z,13.62
2019-05-25T10:41:14.976Z,11.85
2019-05-25T10:43:43.534Z,11.30
2019-05-25T10:46:12.245Z,13.10
2019-05-25T10:48:40.848Z,16.75
2019-05-25T10:51:09.459Z,14.30
2019-05-25T10:53:38.000Z,18.57
2019-05-25T10:56:06.656Z,12.45
2019-05-25T10:58:35.341Z,14.40
2019-05-25T11:01:03.960Z,12.53
2019-05-25T11:03:32.497Z,16.10
2019-05-25T11:06:01.143Z,12.85
2019-05-25T11:08:30.067Z,12.28
2019-05-25T11:10:58.675Z,16.27
2019-05-25T11:13:28.947Z,12.58
2019-05-25T11:15:57.585Z,11.30
2019-05-25T11:18:26.351Z,15.93
2019-05-25T11:20:54.859Z,13.20
2019-05-25T11:23:23.469Z,14.80
2019-05-25T11:25:52.078Z,15.72
2019-05-25T11:28:21.015Z,12.85
2019-05-25T11:30:49.534Z,16.57
2019-05-25T11:33:18.109Z,12.15
2019-05-25T11:35:46.755Z,8.50
2019-05-25T11:38:15.367Z,9.08
2019-05-25T11:40:43.976Z,10.32
2019-05-25T11:43:12.469Z,13.93
2019-05-25T11:45:41.086Z,14.10
2019-05-25T11:48:09.630Z,12.58
2019-05-25T11:50:38.236Z,16.62
2019-05-25T11:53:06.882Z,10.58
2019-05-25T11:55:35.482Z,8.48
2019-05-25T11:58:04.301Z,11.85
2019-05-25T12:00:33.630Z,7.72
2019-05-25T12:03:02.209Z,9.75
2019-05-25T12:05:30.816Z,10.13
2019-05-25T12:07:59.447Z,9.25
2019-05-25T12:10:28.052Z,11.12
2019-05-25T12:12:56.672Z,9.85
2019-05-25T12:15:25.341Z,13.85
2019-05-25T12:17:53.803Z,9.70
2019-05-25T12:20:22.886Z,10.28
2019-05-25T12:22:51.427Z,10.50
2019-05-25T12:25:20.061Z,9.50
2019-05-25T12:27:49.498Z,12.65
2019-05-25T12:30:20.715Z,11.45
2019-05-25T12:32:49.383Z,9.75
2019-05-25T12:35:19.538Z,10.63
2019-05-25T12:37:48.932Z,9.18
2019-05-25T12:40:18.070Z,10.55
2019-05-25T12:42:46.712Z,9.78
2019-05-25T12:45:15.759Z,7.53
2019-05-25T12:47:44.386Z,6.92
2019-05-25T12:50:13.492Z,8.00
2019-05-25T12:52:42.687Z,7.33
2019-05-25T12:55:11.402Z,10.43
2019-05-25T12:57:40.005Z,10.88
2019-05-25T13:00:16.182Z,9.20
2019-05-25T13:02:39.927Z,9.50
2019-05-25T13:05:09.196Z,7.70
2019-05-25T13:07:37.804Z,9.68
2019-05-25T13:10:07.802Z,12.58
2019-05-25T13:12:36.411Z,9.43
2019-05-25T13:15:07.023Z,10.72
2019-05-25T13:17:35.550Z,10.08
2019-05-25T13:20:05.963Z,8.98
2019-05-25T13:22:34.438Z,11.22
2019-05-25T13:25:03.053Z,9.53
2019-05-25T13:27:31.729Z,10.23
2019-05-25T13:30:03.024Z,8.95
2019-05-25T13:32:30.702Z,8.30
2019-05-25T13:34:59.182Z,9.25
2019-05-25T13:37:27.795Z,9.18
2019-05-25T13:39:56.298Z,11.10
2019-05-25T13:42:24.819Z,10.55
2019-05-25T13:44:53.431Z,10.40
2019-05-25T13:47:22.097Z,9.53
2019-05-25T13:49:50.670Z,9.60
2019-05-25T13:52:19.260Z,10.18
2019-05-25T13:54:47.806Z,10.28
2019-05-25T13:57:16.386Z,10.30
2019-05-25T13:59:45.129Z,10.13
2019-05-25T14:02:13.681Z,11.05
2019-05-25T14:04:42.143Z,10.35
2019-05-25T14:07:10.761Z,10.88
2019-05-25T14:09:39.436Z,11.03
2019-05-25T14:12:07.991Z,10.93
2019-05-25T14:14:36.458Z,10.03
2019-05-25T14:17:05.169Z,10.40
2019-05-25T14:19:33.707Z,11.60
2019-05-25T14:22:02.345Z,10.50
2019-05-25T14:24:30.872Z,11.43
2019-05-25T14:26:59.533Z,11.20
2019-05-25T14:29:28.073Z,9.40
2019-05-25T14:31:56.779Z,10.88
2019-05-25T14:34:25.514Z,11.28
2019-05-25T14:36:53.986Z,14.25
2019-05-25T14:39:22.530Z,12.85
2019-05-25T14:41:51.087Z,12.10
2019-05-25T14:44:19.825Z,12.70
2019-05-25T14:46:48.474Z,13.32
2019-05-25T14:49:17.620Z,12.23
2019-05-25T14:51:46.387Z,12.70
2019-05-25T14:54:14.860Z,12.35
2019-05-25T14:56:43.697Z,12.75
2019-05-25T14:59:12.341Z,11.73
2019-05-25T15:01:40.878Z,12.03
2019-05-25T15:04:09.490Z,11.20
2019-05-25T15:06:38.096Z,11.20
2019-05-25T15:09:07.969Z,10.68
2019-05-25T15:11:36.535Z,9.93
2019-05-25T15:14:05.143Z,9.98
2019-05-25T15:16:33.784Z,11.25
2019-05-25T15:19:02.409Z,9.65
2019-05-25T15:21:31.100Z,12.45
2019-05-25T15:23:59.680Z,15.03
2019-05-25T15:26:28.220Z,11.88
2019-05-25T15:28:56.875Z,14.87
2019-05-25T15:31:25.494Z,11.48
2019-05-25T15:33:54.189Z,11.12
2019-05-25T15:36:22.663Z,11.83
2019-05-25T15:38:52.664Z,10.28
2019-05-25T15:41:21.139Z,11.15
2019-05-25T15:43:49.711Z,11.00
2019-05-25T15:46:18.243Z,10.00
2019-05-25T15:48:46.887Z,11.00
2019-05-25T15:51:15.534Z,10.60
2019-05-25T15:53:44.150Z,10.70
2019-05-25T15:56:12.615Z,12.20
2019-05-25T15:58:41.161Z,12.95
2019-05-25T16:01:09.797Z,10.45
2019-05-25T16:03:38.384Z,13.93
2019-05-25T16:06:06.931Z,10.63
2019-05-25T16:08:37.124Z,14.68
2019-05-25T16:11:05.735Z,11.50
2019-05-25T16:13:34.276Z,13.58
2019-05-25T16:16:02.939Z,13.15
2019-05-25T16:18:31.547Z,13.05
2019-05-25T16:21:00.021Z,12.65
2019-05-25T16:23:28.560Z,12.45
2019-05-25T16:25:57.253Z,11.73
2019-05-25T16:28:25.800Z,13.15
2019-05-25T16:30:54.515Z,14.35
2019-05-25T16:33:23.124Z,14.18
2019-05-25T16:35:52.258Z,12.93
2019-05-25T16:38:21.300Z,14.98
2019-05-25T16:40:49.904Z,11.93
2019-05-25T16:43:18.639Z,13.88
2019-05-25T16:45:47.236Z,15.13
2019-05-25T16:48:15.852Z,19.65
2019-05-25T16:50:44.332Z,20.43
2019-05-25T16:53:12.966Z,15.88
2019-05-25T16:55:41.583Z,18.52
2019-05-25T16:58:10.191Z,21.40
2019-05-25T17:00:38.842Z,15.88
2019-05-25T17:03:07.712Z,19.50
2019-05-25T17:05:36.324Z,14.85
2019-05-25T17:08:04.981Z,16.02
2019-05-25T17:10:33.526Z,14.78
2019-05-25T17:13:03.602Z,13.88
2019-05-25T17:15:32.868Z,12.95
2019-05-25T17:18:04.668Z,13.98
2019-05-25T17:20:31.843Z,17.00
2019-05-25T17:23:00.556Z,15.28
2019-05-25T17:25:29.217Z,16.85
2019-05-25T17:27:57.822Z,13.05
2019-05-25T17:30:45.361Z,16.25
2019-05-25T17:33:14.426Z,17.70
2019-05-25T17:35:44.338Z,16.15
2019-05-25T17:38:12.990Z,18.00
2019-05-25T17:40:41.651Z,17.85
2019-05-25T17:43:10.288Z,21.50
2019-05-25T17:45:38.998Z,23.07
2019-05-25T17:48:07.617Z,33.78
2019-05-25T17:50:36.242Z,47.30
2019-05-25T17:53:05.118Z,58.00
2019-05-25T17:55:33.731Z,45.15
2019-05-25T17:58:02.280Z,39.33
2019-05-25T18:00:42.199Z,28.95
2019-05-25T18:03:10.867Z,25.30
2019-05-25T18:05:39.712Z,22.95
2019-05-25T18:08:09.120Z,21.05
2019-05-25T18:10:52.150Z,26.52
2019-05-25T18:13:08.367Z,33.15
2019-05-25T18:15:36.975Z,27.58
2019-05-25T18:18:07.361Z,24.82
2019-05-25T18:20:36.277Z,22.30
2019-05-25T18:23:05.290Z,22.45
2019-05-25T18:25:33.827Z,21.35
2019-05-25T18:28:02.448Z,24.40
2019-05-25T18:30:31.267Z,29.67
2019-05-25T18:33:00.089Z,28.42
2019-05-25T18:35:28.702Z,25.88
2019-05-25T18:37:57.315Z,23.65
2019-05-25T18:40:26.226Z,26.75
2019-05-25T18:42:54.800Z,22.58
2019-05-25T18:45:24.765Z,24.92
2019-05-25T18:47:53.276Z,28.20
2019-05-25T18:50:22.318Z,26.35
2019-05-25T18:52:50.814Z,23.57
2019-05-25T18:55:19.828Z,21.87
2019-05-25T18:57:48.436Z,21.45
2019-05-25T19:00:17.661Z,21.62
2019-05-25T19:02:46.221Z,22.73
2019-05-25T19:05:15.674Z,23.05
2019-05-25T19:07:44.266Z,21.17
2019-05-25T19:10:13.317Z,24.02
2019-05-25T19:12:41.977Z,21.33
2019-05-25T19:15:11.321Z,21.57
2019-05-25T19:17:40.000Z,21.02
2019-05-25T19:20:09.570Z,19.50
2019-05-25T19:22:38.247Z,22.02
2019-05-25T19:25:09.536Z,25.08
2019-05-25T19:27:38.144Z,22.87
2019-05-25T19:30:08.652Z,21.23
2019-05-25T19:32:37.204Z,25.23
2019-05-25T19:35:06.695Z,28.65
2019-05-25T19:37:35.156Z,22.73
2019-05-25T19:40:08.999Z,22.45
2019-05-25T19:42:36.035Z,21.15
2019-05-25T19:45:07.697Z,20.45
2019-05-25T19:47:36.308Z,27.10
2019-05-25T19:50:06.993Z,28.17
2019-05-25T19:52:38.563Z,25.35
2019-05-25T19:55:07.869Z,23.00
2019-05-25T19:57:37.879Z,21.30
2019-05-25T20:00:08.738Z,22.27
2019-05-25T20:02:37.756Z,25.02
2019-05-25T20:05:16.464Z,25.40
2019-05-25T20:07:40.264Z,25.27
2019-05-25T20:10:09.989Z,21.62
2019-05-25T20:12:38.870Z,24.82
2019-05-25T20:15:08.688Z,24.92
2019-05-25T20:17:37.959Z,21.65
2019-05-25T20:20:09.295Z,23.65
2019-05-25T20:22:37.813Z,24.27
2019-05-25T20:25:07.169Z,22.80
2019-05-25T20:27:37.140Z,22.50
2019-05-25T20:30:07.787Z,22.67
2019-05-25T20:32:36.400Z,21.68
2019-05-25T20:35:06.325Z,22.93
2019-05-25T20:37:34.949Z,23.10
2019-05-25T20:40:04.559Z,26.48
2019-05-25T20:42:33.193Z,22.82
2019-05-25T20:45:01.767Z,22.55
2019-05-25T20:47:30.652Z,20.77
2019-05-25T20:50:02.224Z,21.25
2019-05-25T20:52:30.909Z,18.77
2019-05-25T20:54:59.444Z,21.70
2019-05-25T20:57:28.005Z,21.30
2019-05-25T20:59:56.628Z,19.98
2019-05-25T21:02:25.858Z,22.45
2019-05-25T21:04:54.429Z,20.70
2019-05-25T21:07:22.997Z,21.35
2019-05-25T21:09:51.611Z,26.10
2019-05-25T21:12:20.210Z,19.82
2019-05-25T21:14:48.830Z,18.27
2019-05-25T21:17:17.464Z,18.77
2019-05-25T21:19:46.265Z,21.30
2019-05-25T21:22:14.767Z,17.52
2019-05-25T21:24:43.338Z,18.87
2019-05-25T21:27:13.388Z,17.87
2019-05-25T21:29:42.030Z,17.87
2019-05-25T21:32:10.686Z,19.40
2019-05-25T21:34:39.324Z,22.75
2019-05-25T21:37:09.451Z,19.85
2019-05-25T21:39:38.084Z,22.42
2019-05-25T21:42:06.709Z,19.82
2019-05-25T21:44:35.373Z,20.85
2019-05-25T21:47:04.004Z,18.15
2019-05-25T21:49:32.688Z,22.62
2019-05-25T21:52:01.305Z,16.05
2019-05-25T21:54:29.926Z,18.10
2019-05-25T21:56:58.546Z,17.20
2019-05-25T21:59:27.151Z,19.87
2019-05-25T22:01:55.777Z,23.02
2019-05-25T22:04:24.396Z,17.92
2019-05-25T22:06:53.031Z,20.17
2019-05-25T22:09:21.586Z,20.27
2019-05-25T22:11:50.206Z,20.62
2019-05-25T22:14:18.826Z,18.05
2019-05-25T22:16:47.489Z,19.62
2019-05-25T22:19:16.122Z,19.25
2019-05-25T22:21:46.445Z,18.95
2019-05-25T22:24:14.875Z,19.40
2019-05-25T22:26:43.357Z,18.45
2019-05-25T22:29:12.176Z,18.57
2019-05-25T22:31:40.787Z,19.23
2019-05-25T22:34:09.405Z,19.70
2019-05-25T22:36:40.955Z,22.15
2019-05-25T22:39:08.938Z,21.97
2019-05-25T22:41:38.733Z,20.23
2019-05-25T22:44:07.379Z,18.80
2019-05-25T22:46:35.923Z,24.65
2019-05-25T22:49:04.880Z,17.98
2019-05-25T22:51:33.517Z,22.55
2019-05-25T22:54:02.159Z,18.90
2019-05-25T22:56:30.765Z,20.43
2019-05-25T22:58:59.374Z,19.05
2019-05-25T23:01:27.921Z,20.80
2019-05-25T23:03:56.468Z,20.72
2019-05-25T23:06:26.587Z,18.65
2019-05-25T23:08:55.215Z,18.20
2019-05-25T23:11:23.861Z,19.05
2019-05-25T23:13:52.443Z,19.45
2019-05-25T23:16:21.086Z,19.60
2019-05-25T23:18:49.635Z,20.97
2019-05-25T23:21:18.302Z,18.52
2019-05-25T23:23:46.852Z,22.27
2019-05-25T23:26:15.631Z,19.35
2019-05-25T23:28:44.186Z,21.40
2019-05-25T23:31:14.319Z,21.68
2019-05-25T23:33:42.831Z,18.65
2019-05-25T23:36:11.477Z,21.35
2019-05-25T23:38:40.062Z,23.30
2019-05-25T23:41:08.615Z,21.05
2019-05-25T23:43:37.296Z,20.70
2019-05-25T23:46:06.163Z,19.17
2019-05-25T23:48:34.781Z,23.47
2019-05-25T23:51:03.388Z,18.98
2019-05-25T23:53:31.995Z,19.07
2019-05-25T23:56:02.123Z,18.57
2019-05-25T23:58:30.753Z,21.05
